CheckWX is a tool to help pilots better visualize weather data.  It is not intended as a substitute for an official pre-flight weather briefing.

21:03:52 UTC

KLDJ METAR
Linden Airport
Linden, New Jersey, USA
Current

9 mins ago

KLDJ 232055Z AUTO 00000KT 10SM SCT120 21/17 A2997 RMK AO2 LTG DSNT SE P0015 60015 T02070174
Observed
May-23 @ 20:55 UTC
Visibility
10 SM
Flight Rules
VFR
Cloud Levels
  • Scattered at 12,000' AGL
Temperature
21°C / 70°F
Dewpoint
17°C / 63°F
Humidity
78%
Altimeter
29.97" Hg
Pressure
1014.92 hPa
Current Rain
0.15"
Previous

29 mins ago

KLDJ 232035Z AUTO 00000KT 10SM TS SCT014 SCT024 SCT120 20/18 A3000 RMK AO2 LTG DSNT E THRU S P0015 T02000176
Observed
May-23 @ 20:35 UTC
Visibility
10 SM
Flight Rules
VFR
Conditions
Thunderstorm
Cloud Levels
  • Scattered at 1,400' AGL
  • Scattered at 2,400' AGL
  • Scattered at 12,000' AGL
Temperature
20°C / 68°F
Dewpoint
18°C / 64°F
Humidity
88%
Altimeter
30" Hg
Pressure
1015.92 hPa
Current Rain
0.15"
Previous

2 hours ago

KLDJ 231915Z AUTO 22004KT 10SM CLR 23/14 A3000 RMK AO2 LTG DSNT N T02340136
Observed
May-23 @ 19:15 UTC
Wind
  • 220° at 4 KTS
Visibility
10 SM
Flight Rules
VFR
Cloud Levels
  • Clear skies
Temperature
23°C / 73°F
Dewpoint
14°C / 57°F
Humidity
57%
Altimeter
30" Hg
Pressure
1015.92 hPa